Time;durP1;ratioP1;P1;durP2;ratioP2;P2;SDS_P1;SDS_P2;PMS_P1;PMS_P2;Temp;Humidity;BMP_temperature;BMP_pressure;BME280_temperature;BME280_humidity;BME280_pressure;Samples;Min_cycle;Max_cycle;Signal;HPM_P1;HPM_P2
2022/09/18 00:02:23;;;;;;;5.88;1.20;;;9.80;99.90;;;;;;5109152;28;20028;-72
2022/09/18 00:04:49;;;;;;;8.82;1.10;;;9.80;99.90;;;;;;5113209;28;20043;-72
2022/09/18 00:07:15;;;;;;;4.25;1.02;;;9.80;99.90;;;;;;5106952;28;20173;-73
2022/09/18 00:09:40;;;;;;;4.68;1.20;;;9.80;99.90;;;;;;5106896;28;20517;-73
2022/09/18 00:12:06;;;;;;;4.63;1.00;;;9.80;99.90;;;;;;5077642;28;20043;-72
2022/09/18 00:14:31;;;;;;;5.45;1.00;;;9.80;99.90;;;;;;5107031;28;20504;-72
2022/09/18 00:16:57;;;;;;;6.90;1.40;;;9.80;99.90;;;;;;5107679;28;20578;-73
2022/09/18 00:19:22;;;;;;;6.78;1.10;;;9.90;99.90;;;;;;5108729;28;20690;-73
2022/09/18 00:21:49;;;;;;;8.77;1.38;;;9.90;99.90;;;;;;5108059;27;20787;-72
2022/09/18 00:24:19;;;;;;;9.93;1.27;;;9.90;99.90;;;;;;5107177;28;20578;-72
2022/09/18 00:26:46;;;;;;;7.03;1.35;;;9.90;99.90;;;;;;5104903;28;20110;-72
2022/09/18 00:29:12;;;;;;;9.57;1.15;;;9.90;99.90;;;;;;5102391;28;20651;-73
2022/09/18 00:31:39;;;;;;;6.32;1.63;;;10.00;99.90;;;;;;5108515;28;20124;-73
2022/09/18 00:34:07;;;;;;;10.10;1.50;;;10.00;99.90;;;;;;5104139;28;20032;-73
2022/09/18 00:36:34;;;;;;;5.63;0.93;;;10.00;99.90;;;;;;5108372;28;20115;-73
2022/09/18 00:39:01;;;;;;;5.00;0.93;;;10.00;99.90;;;;;;5104748;28;20042;-73
2022/09/18 00:41:45;;;;;;;9.07;1.20;;;10.00;99.90;;;;;;5110456;28;20046;-72
2022/09/18 00:44:35;;;;;;;4.80;1.27;;;10.00;99.90;;;;;;5101680;28;20039;-72
2022/09/18 00:47:10;;;;;;;7.82;1.40;;;9.90;99.90;;;;;;5104186;28;20047;-73
2022/09/18 00:49:44;;;;;;;9.18;0.93;;;9.90;99.90;;;;;;5107643;28;20039;-73
2022/09/18 00:52:12;;;;;;;7.35;1.15;;;9.90;99.90;;;;;;5083915;28;20032;-73
2022/09/18 00:54:40;;;;;;;7.85;1.42;;;10.00;99.90;;;;;;5101878;28;20517;-73
2022/09/18 00:57:13;;;;;;;6.00;1.00;;;10.00;99.90;;;;;;5108530;28;20046;-72
2022/09/18 00:59:41;;;;;;;9.25;1.20;;;10.00;99.90;;;;;;5100982;28;20483;-73
2022/09/18 01:02:06;;;;;;;5.32;1.38;;;10.10;99.90;;;;;;5106431;28;20043;-72
2022/09/18 01:04:32;;;;;;;8.05;1.00;;;10.10;99.90;;;;;;5089794;28;20546;-73
2022/09/18 01:07:40;;;;;;;6.93;1.25;;;10.10;99.90;;;;;;5107189;28;20126;-73
2022/09/18 01:10:24;;;;;;;5.22;1.23;;;10.10;99.90;;;;;;5097793;28;20050;-73
2022/09/18 01:12:57;;;;;;;7.35;1.73;;;10.20;99.90;;;;;;5083716;28;20092;-73
2022/09/18 01:15:51;;;;;;;8.52;1.50;;;10.10;99.90;;;;;;5109729;28;20105;-73
2022/09/18 01:18:41;;;;;;;7.47;1.30;;;10.10;99.90;;;;;;5104869;28;20063;-72
2022/09/18 01:21:09;;;;;;;6.40;1.10;;;10.10;99.90;;;;;;5100349;28;20454;-73
2022/09/18 01:23:42;;;;;;;11.80;1.63;;;10.10;99.90;;;;;;5094311;28;20706;-73
2022/09/18 01:26:08;;;;;;;5.83;1.30;;;10.10;99.90;;;;;;5086697;28;20446;-73
2022/09/18 01:28:45;;;;;;;4.40;1.55;;;10.00;99.90;;;;;;5102620;28;20044;-73
2022/09/18 01:31:18;;;;;;;9.57;1.27;;;10.00;99.90;;;;;;5104104;28;20126;-73
2022/09/18 01:34:02;;;;;;;8.88;1.63;;;10.00;99.90;;;;;;5102758;28;20051;-72
2022/09/18 01:36:33;;;;;;;4.95;1.00;;;10.00;99.90;;;;;;5107425;28;20572;-73
2022/09/18 01:39:16;;;;;;;6.05;1.17;;;9.90;99.90;;;;;;5098486;28;20032;-73
2022/09/18 01:41:49;;;;;;;10.55;1.45;;;9.90;99.90;;;;;;5086705;28;20036;-73
2022/09/18 01:44:20;;;;;;;6.93;1.10;;;9.90;99.90;;;;;;5100326;28;20110;-73
2022/09/18 01:46:48;;;;;;;8.07;1.35;;;9.90;99.90;;;;;;5100472;28;20032;-73
2022/09/18 01:49:22;;;;;;;8.30;1.30;;;9.90;99.90;;;;;;5101990;28;20044;-73
2022/09/18 01:52:36;;;;;;;5.60;1.30;;;9.90;99.90;;;;;;5102696;28;20400;-73
2022/09/18 01:55:08;;;;;;;7.13;1.05;;;10.00;99.90;;;;;;5050054;28;20106;-72
2022/09/18 01:57:50;;;;;;;9.48;1.40;;;10.00;99.90;;;;;;5103054;28;20101;-73
2022/09/18 02:00:16;;;;;;;6.80;1.52;;;10.00;99.90;;;;;;5102470;28;20035;-72
2022/09/18 02:02:51;;;;;;;10.10;1.42;;;10.10;99.90;;;;;;5101677;28;20039;-73
2022/09/18 02:05:25;;;;;;;7.18;1.30;;;10.00;99.90;;;;;;5098723;28;20145;-73
2022/09/18 02:08:15;;;;;;;9.10;1.25;;;10.10;99.90;;;;;;5090505;28;20032;-73
2022/09/18 02:10:46;;;;;;;7.28;1.60;;;10.10;99.90;;;;;;5105795;28;20044;-72
2022/09/18 02:13:16;;;;;;;5.93;1.10;;;10.10;99.90;;;;;;5108826;28;20040;-73
2022/09/18 02:15:44;;;;;;;7.43;1.33;;;10.10;99.90;;;;;;5083370;28;20508;-72
2022/09/18 02:18:32;;;;;;;7.90;1.33;;;10.10;99.90;;;;;;5097301;28;20451;-73
2022/09/18 02:20:58;;;;;;;8.90;1.40;;;10.10;99.90;;;;;;5105186;28;20093;-73
2022/09/18 02:23:25;;;;;;;7.70;1.20;;;10.10;99.90;;;;;;5108228;28;20028;-73
2022/09/18 02:25:56;;;;;;;10.43;1.63;;;10.10;99.90;;;;;;5086190;28;20401;-73
2022/09/18 02:28:24;;;;;;;6.75;1.17;;;10.10;99.90;;;;;;5108996;28;20043;-73
2022/09/18 02:30:50;;;;;;;5.78;1.20;;;10.10;99.90;;;;;;5103965;28;20043;-73
2022/09/18 02:33:26;;;;;;;6.20;1.20;;;10.20;99.90;;;;;;5087444;28;20036;-73
2022/09/18 02:36:12;;;;;;;5.97;1.40;;;10.20;99.90;;;;;;5100930;28;20125;-73
2022/09/18 02:38:48;;;;;;;6.68;1.10;;;10.20;99.90;;;;;;5084504;28;20077;-72
2022/09/18 02:41:35;;;;;;;7.60;1.17;;;10.20;99.90;;;;;;5108147;28;20040;-73
2022/09/18 02:44:10;;;;;;;6.07;1.13;;;10.20;99.90;;;;;;5104613;28;20043;-72
2022/09/18 02:46:54;;;;;;;8.13;1.52;;;10.20;99.90;;;;;;5092802;28;20040;-73
2022/09/18 02:49:32;;;;;;;7.38;1.35;;;10.20;99.90;;;;;;5107211;28;20044;-73
2022/09/18 02:52:10;;;;;;;5.50;1.40;;;10.20;99.90;;;;;;5105959;28;20039;-73
2022/09/18 02:54:55;;;;;;;12.13;1.92;;;10.20;99.90;;;;;;5105302;28;20039;-72
2022/09/18 02:57:34;;;;;;;9.63;1.52;;;10.20;99.90;;;;;;5103796;28;20514;-73
2022/09/18 03:00:01;;;;;;;9.90;1.65;;;10.20;99.90;;;;;;5100835;28;20031;-73
2022/09/18 03:02:27;;;;;;;10.48;1.70;;;10.20;99.90;;;;;;5110227;28;20036;-73
2022/09/18 03:04:53;;;;;;;8.45;1.60;;;10.20;99.90;;;;;;5086025;28;20035;-73
2022/09/18 03:07:19;;;;;;;10.40;1.33;;;10.20;99.90;;;;;;5108722;28;20130;-73
2022/09/18 03:09:44;;;;;;;7.10;1.38;;;10.10;99.90;;;;;;5104052;28;20035;-73
2022/09/18 03:12:11;;;;;;;8.63;1.50;;;10.20;99.90;;;;;;5109463;28;20067;-73
2022/09/18 03:14:36;;;;;;;14.55;1.73;;;10.20;99.90;;;;;;5106884;28;20489;-73
2022/09/18 03:17:02;;;;;;;11.95;1.50;;;10.20;99.90;;;;;;5110385;28;20031;-73
2022/09/18 03:19:27;;;;;;;7.88;1.40;;;10.10;99.90;;;;;;5106940;28;20587;-74
2022/09/18 03:21:53;;;;;;;12.13;1.45;;;10.20;99.90;;;;;;5083999;28;20028;-74
2022/09/18 03:24:19;;;;;;;9.00;1.30;;;10.20;99.90;;;;;;5110920;28;20047;-74
2022/09/18 03:26:45;;;;;;;8.07;1.40;;;10.20;99.90;;;;;;5092708;28;20031;-74
2022/09/18 03:29:12;;;;;;;7.75;1.40;;;10.20;99.90;;;;;;5108499;28;20381;-73
2022/09/18 03:31:38;;;;;;;5.93;0.98;;;10.20;99.90;;;;;;5110005;28;20148;-73
2022/09/18 03:34:04;;;;;;;7.72;1.30;;;10.20;99.90;;;;;;5092155;28;20032;-74
2022/09/18 03:36:30;;;;;;;8.50;2.00;;;10.20;99.90;;;;;;5088303;28;20031;-73
2022/09/18 03:38:56;;;;;;;7.72;1.02;;;10.20;99.90;;;;;;5110985;28;20378;-73
2022/09/18 03:41:21;;;;;;;11.02;1.45;;;10.20;99.90;;;;;;5085551;28;20044;-73
2022/09/18 03:43:47;;;;;;;6.57;1.30;;;10.20;99.90;;;;;;5106291;28;20489;-73
2022/09/18 03:46:13;;;;;;;8.90;1.13;;;10.20;99.90;;;;;;5099714;28;20040;-73
2022/09/18 03:48:39;;;;;;;6.40;1.38;;;10.20;99.90;;;;;;5106414;28;20047;-73
2022/09/18 03:51:04;;;;;;;9.55;1.40;;;10.20;99.90;;;;;;5109212;28;20031;-73
2022/09/18 03:53:30;;;;;;;7.10;1.00;;;10.20;99.90;;;;;;5111540;28;20039;-73
2022/09/18 03:55:56;;;;;;;7.50;1.17;;;10.20;99.90;;;;;;5088308;28;20531;-73
2022/09/18 03:58:22;;;;;;;6.07;0.85;;;10.10;99.90;;;;;;5099411;28;20042;-73
2022/09/18 04:00:47;;;;;;;4.50;1.50;;;10.20;99.90;;;;;;5105517;28;20028;-73
2022/09/18 04:03:13;;;;;;;6.82;1.00;;;10.10;99.90;;;;;;5082668;28;20123;-73
2022/09/18 04:05:38;;;;;;;5.05;0.88;;;10.20;99.90;;;;;;5092313;28;20047;-73
2022/09/18 04:08:04;;;;;;;8.88;1.85;;;10.20;99.90;;;;;;5109576;28;20485;-73
2022/09/18 04:10:31;;;;;;;6.05;0.93;;;10.10;99.90;;;;;;5094623;28;20054;-73
2022/09/18 04:12:56;;;;;;;5.43;0.90;;;10.20;99.90;;;;;;5103060;28;20039;-73
2022/09/18 04:15:22;;;;;;;4.75;0.88;;;10.20;99.90;;;;;;5090007;28;20504;-74
2022/09/18 04:17:47;;;;;;;9.95;1.20;;;10.10;99.90;;;;;;5075343;28;20142;-74
2022/09/18 04:20:13;;;;;;;5.75;0.85;;;10.20;99.90;;;;;;5091483;28;20032;-74
2022/09/18 04:22:39;;;;;;;6.97;1.13;;;10.10;99.90;;;;;;5107711;28;20550;-74
2022/09/18 04:25:05;;;;;;;5.97;1.00;;;10.10;99.90;;;;;;5107384;28;20390;-74
2022/09/18 04:27:33;;;;;;;6.32;0.98;;;10.10;99.90;;;;;;5085116;28;20044;-74
2022/09/18 04:29:58;;;;;;;6.13;1.10;;;10.10;99.90;;;;;;5080130;28;20032;-74
2022/09/18 04:32:24;;;;;;;7.82;1.48;;;10.10;99.90;;;;;;5098913;28;20063;-75
2022/09/18 04:34:49;;;;;;;5.45;0.75;;;10.10;99.90;;;;;;5108679;28;20035;-75
2022/09/18 04:37:15;;;;;;;5.68;0.85;;;10.10;99.90;;;;;;5101909;28;20108;-74
2022/09/18 04:39:40;;;;;;;4.63;0.85;;;10.10;99.90;;;;;;5107762;28;20032;-73
2022/09/18 04:42:06;;;;;;;4.50;0.90;;;10.10;99.90;;;;;;5102465;28;20032;-73
2022/09/18 04:44:31;;;;;;;4.13;0.60;;;10.10;99.90;;;;;;5110936;28;20416;-74
2022/09/18 04:46:57;;;;;;;5.03;0.95;;;10.10;99.90;;;;;;5088608;28;20031;-74
2022/09/18 04:49:22;;;;;;;5.18;1.00;;;10.10;99.90;;;;;;5107024;28;20560;-74
2022/09/18 04:51:48;;;;;;;3.78;0.77;;;10.10;99.90;;;;;;5107181;28;20786;-74
2022/09/18 04:54:14;;;;;;;5.22;0.90;;;10.10;99.90;;;;;;5104375;28;20455;-74
2022/09/18 04:56:40;;;;;;;6.88;1.00;;;10.00;99.90;;;;;;5106138;28;20032;-74
2022/09/18 04:59:05;;;;;;;5.50;0.95;;;10.10;99.90;;;;;;5084107;28;20105;-74
2022/09/18 05:01:32;;;;;;;8.93;1.17;;;10.00;99.90;;;;;;5104338;28;20078;-73
2022/09/18 05:03:57;;;;;;;3.00;0.80;;;10.10;99.90;;;;;;5082027;28;20870;-74
2022/09/18 05:06:23;;;;;;;7.50;1.77;;;10.00;99.90;;;;;;5110227;28;20040;-74
2022/09/18 05:08:48;;;;;;;6.20;1.02;;;10.00;99.90;;;;;;5098094;28;20118;-73
2022/09/18 05:11:14;;;;;;;10.65;0.98;;;10.00;99.90;;;;;;5108696;28;20119;-74
2022/09/18 05:13:40;;;;;;;5.88;0.85;;;10.10;99.90;;;;;;5092215;28;20112;-74
2022/09/18 05:16:06;;;;;;;8.25;0.90;;;10.10;99.90;;;;;;5082390;28;20047;-74
2022/09/18 05:18:32;;;;;;;7.97;1.10;;;10.10;99.90;;;;;;5105870;28;20048;-74
2022/09/18 05:21:04;;;;;;;10.65;1.48;;;10.10;99.90;;;;;;5104332;28;20043;-75
2022/09/18 05:23:32;;;;;;;5.35;0.93;;;10.10;99.90;;;;;;5086476;28;20111;-75
2022/09/18 05:25:58;;;;;;;6.88;1.05;;;10.20;99.90;;;;;;5101617;28;20039;-75
2022/09/18 05:28:23;;;;;;;7.45;1.20;;;10.10;99.90;;;;;;5107095;28;20039;-75
2022/09/18 05:30:49;;;;;;;5.75;1.13;;;10.20;99.90;;;;;;5096812;28;20044;-75
2022/09/18 05:33:14;;;;;;;5.25;0.80;;;10.20;99.90;;;;;;5105806;28;20035;-75
2022/09/18 05:35:41;;;;;;;6.03;0.90;;;10.20;99.90;;;;;;5086964;28;20054;-75
2022/09/18 05:38:07;;;;;;;5.82;1.00;;;10.20;99.90;;;;;;5086539;28;20122;-75
2022/09/18 05:40:35;;;;;;;8.18;1.30;;;10.20;99.90;;;;;;5103206;28;20035;-74
2022/09/18 05:43:04;;;;;;;8.63;1.13;;;10.20;99.90;;;;;;5100646;28;20035;-74
2022/09/18 05:45:30;;;;;;;7.25;0.90;;;10.20;99.90;;;;;;5106566;28;20043;-75
2022/09/18 05:47:58;;;;;;;7.93;1.10;;;10.20;99.90;;;;;;5084517;28;20494;-75
2022/09/18 05:50:25;;;;;;;4.72;0.80;;;10.20;99.90;;;;;;5103467;28;20065;-75
2022/09/18 05:53:02;;;;;;;4.68;1.10;;;10.20;99.90;;;;;;5106917;28;20046;-75
2022/09/18 05:55:28;;;;;;;6.35;0.90;;;10.30;99.90;;;;;;5089236;28;20394;-75
2022/09/18 05:57:55;;;;;;;8.45;1.42;;;10.30;99.90;;;;;;5101460;28;20126;-75
2022/09/18 06:00:25;;;;;;;7.15;1.08;;;10.30;99.90;;;;;;5090013;28;20451;-74
2022/09/18 06:02:55;;;;;;;6.70;1.20;;;10.30;99.90;;;;;;5102703;28;20027;-74
2022/09/18 06:05:22;;;;;;;3.05;0.68;;;10.30;99.90;;;;;;5089543;28;20446;-74
2022/09/18 06:07:48;;;;;;;6.20;1.08;;;10.30;99.90;;;;;;5106370;28;20492;-75
2022/09/18 06:10:14;;;;;;;9.75;1.17;;;10.40;99.90;;;;;;5109698;28;20455;-75
2022/09/18 06:12:39;;;;;;;4.43;1.10;;;10.40;99.90;;;;;;5078685;28;20040;-74
2022/09/18 06:15:05;;;;;;;5.25;0.93;;;10.40;99.90;;;;;;5110005;28;20051;-74
2022/09/18 06:17:31;;;;;;;5.47;1.52;;;10.40;99.90;;;;;;5100735;28;20396;-74
2022/09/18 06:19:58;;;;;;;10.52;1.48;;;10.40;99.90;;;;;;5083147;28;20036;-74
2022/09/18 06:22:23;;;;;;;5.10;1.13;;;10.50;99.90;;;;;;5104363;28;20074;-75
2022/09/18 06:24:49;;;;;;;7.40;1.10;;;10.50;99.90;;;;;;5085228;28;20508;-74
2022/09/18 06:27:14;;;;;;;9.05;1.85;;;10.50;99.90;;;;;;5095664;28;20134;-75
2022/09/18 06:29:40;;;;;;;11.40;1.98;;;10.50;99.90;;;;;;5105587;28;20071;-74
2022/09/18 06:32:05;;;;;;;10.15;1.38;;;10.50;99.90;;;;;;5106724;28;20147;-74
2022/09/18 06:34:31;;;;;;;6.88;1.05;;;10.50;99.90;;;;;;5102360;28;20071;-74
2022/09/18 06:36:56;;;;;;;8.23;1.15;;;10.60;99.90;;;;;;5087880;28;20448;-75
2022/09/18 06:39:22;;;;;;;6.10;1.35;;;10.60;99.90;;;;;;5109568;28;20138;-74
2022/09/18 06:41:48;;;;;;;13.27;1.63;;;10.60;99.90;;;;;;5072804;28;20060;-75
2022/09/18 06:44:14;;;;;;;10.10;1.35;;;10.60;99.90;;;;;;5089235;28;20039;-74
2022/09/18 06:46:39;;;;;;;6.10;1.23;;;10.60;99.90;;;;;;5108353;28;20094;-74
2022/09/18 06:49:05;;;;;;;9.80;1.30;;;10.70;99.90;;;;;;5110088;28;20509;-75
2022/09/18 06:51:31;;;;;;;8.25;1.17;;;10.70;99.90;;;;;;5094485;28;20073;-73
2022/09/18 06:53:56;;;;;;;7.25;1.63;;;10.70;99.90;;;;;;5103149;28;20489;-74
2022/09/18 06:56:22;;;;;;;5.85;1.20;;;10.70;99.90;;;;;;5110076;28;20491;-74
2022/09/18 06:58:50;;;;;;;3.72;0.93;;;10.70;99.90;;;;;;5108410;28;20034;-74
2022/09/18 07:01:15;;;;;;;6.75;1.00;;;10.80;99.90;;;;;;5089081;28;20039;-75
2022/09/18 07:03:41;;;;;;;7.03;1.67;;;10.80;99.90;;;;;;5102250;28;20071;-74
2022/09/18 07:06:09;;;;;;;7.78;0.98;;;10.80;99.90;;;;;;5072809;28;20043;-74
2022/09/18 07:08:34;;;;;;;7.85;0.95;;;10.80;99.90;;;;;;5106904;28;20047;-74
2022/09/18 07:11:01;;;;;;;5.00;0.60;;;10.80;99.90;;;;;;5101988;28;20484;-73
2022/09/18 07:13:30;;;;;;;4.43;0.98;;;10.80;99.90;;;;;;5101598;28;20036;-74
2022/09/18 07:15:56;;;;;;;6.28;0.90;;;10.80;99.90;;;;;;5103882;28;20036;-74
2022/09/18 07:18:23;;;;;;;6.00;1.20;;;10.80;99.90;;;;;;5106133;28;20489;-74
2022/09/18 07:20:49;;;;;;;6.15;1.20;;;10.80;99.90;;;;;;5106511;28;20065;-74
2022/09/18 07:23:16;;;;;;;8.45;1.20;;;10.80;99.90;;;;;;5078667;28;20036;-74
2022/09/18 07:25:41;;;;;;;6.70;1.38;;;10.80;99.90;;;;;;5089068;28;20123;-74
2022/09/18 07:28:09;;;;;;;7.53;1.55;;;10.90;99.90;;;;;;5072241;28;20123;-75
2022/09/18 07:30:38;;;;;;;8.70;1.00;;;10.90;99.90;;;;;;5082494;28;20109;-76
2022/09/18 07:33:05;;;;;;;6.60;1.45;;;10.90;99.90;;;;;;5099072;28;20043;-75
2022/09/18 07:35:31;;;;;;;8.90;1.10;;;10.80;99.90;;;;;;5107831;28;20036;-76
2022/09/18 07:38:01;;;;;;;6.38;1.45;;;10.80;99.90;;;;;;5093901;28;20520;-76
2022/09/18 07:40:28;;;;;;;4.65;1.00;;;10.80;99.90;;;;;;5095116;28;20089;-75
2022/09/18 07:43:02;;;;;;;10.43;1.20;;;10.80;99.90;;;;;;5101418;28;20031;-75
2022/09/18 07:45:28;;;;;;;5.72;1.25;;;10.80;99.90;;;;;;5098487;28;20114;-75
2022/09/18 07:47:54;;;;;;;8.68;1.15;;;10.70;99.90;;;;;;5108486;28;20035;-75
2022/09/18 07:50:20;;;;;;;6.78;1.38;;;10.70;99.90;;;;;;5094231;28;20031;-75
2022/09/18 07:52:51;;;;;;;7.22;1.20;;;10.60;99.90;;;;;;5095281;28;20119;-74
2022/09/18 07:55:19;;;;;;;5.00;1.25;;;10.60;99.90;;;;;;5102233;28;20118;-77
2022/09/18 07:57:47;;;;;;;6.38;1.05;;;10.60;99.90;;;;;;5096464;28;20043;-75
2022/09/18 08:00:13;;;;;;;5.80;1.10;;;10.70;99.90;;;;;;5092654;28;20036;-75
2022/09/18 08:02:39;;;;;;;8.95;1.02;;;10.70;99.90;;;;;;5092454;28;20119;-75
2022/09/18 08:05:05;;;;;;;7.63;1.30;;;10.70;99.90;;;;;;5094412;28;20470;-76
2022/09/18 08:07:31;;;;;;;5.65;1.10;;;10.70;99.90;;;;;;5085078;28;20040;-76
2022/09/18 08:09:56;;;;;;;5.38;1.00;;;10.80;99.90;;;;;;5084305;28;20381;-76
2022/09/18 08:12:22;;;;;;;8.13;1.10;;;10.80;99.90;;;;;;5095164;28;20498;-76
2022/09/18 08:14:48;;;;;;;5.13;1.13;;;10.80;99.90;;;;;;5093700;28;20519;-75
2022/09/18 08:17:13;;;;;;;6.63;1.30;;;10.80;99.90;;;;;;5093552;28;20044;-75
2022/09/18 08:19:39;;;;;;;5.85;1.10;;;10.80;99.90;;;;;;5091661;28;20024;-75
2022/09/18 08:22:04;;;;;;;7.35;1.30;;;10.80;99.90;;;;;;5089917;28;20547;-75
2022/09/18 08:24:30;;;;;;;7.40;2.00;;;10.80;99.90;;;;;;5073808;28;20039;-75
2022/09/18 08:27:02;;;;;;;4.95;1.08;;;10.80;99.90;;;;;;5096138;28;20548;-75
2022/09/18 08:29:28;;;;;;;8.07;1.20;;;10.80;99.90;;;;;;5075562;28;20040;-75
2022/09/18 08:31:54;;;;;;;5.10;1.30;;;10.80;99.90;;;;;;5095378;28;20057;-76
2022/09/18 08:34:19;;;;;;;3.97;1.10;;;10.80;99.90;;;;;;5093924;28;20036;-75
2022/09/18 08:36:45;;;;;;;5.10;1.15;;;10.90;99.90;;;;;;5074214;28;20039;-74
2022/09/18 08:39:10;;;;;;;4.82;1.30;;;10.80;99.90;;;;;;5091130;28;20040;-76
2022/09/18 08:41:51;;;;;;;4.65;1.10;;;10.80;99.90;;;;;;5079007;28;20036;-75
2022/09/18 08:44:27;;;;;;;12.88;1.08;;;10.80;99.90;;;;;;5090131;28;20040;-76
2022/09/18 08:47:10;;;;;;;6.68;0.85;;;10.80;99.90;;;;;;5074151;28;20040;-75
2022/09/18 08:49:41;;;;;;;7.80;1.10;;;10.80;99.90;;;;;;5096041;28;20052;-76
2022/09/18 08:52:14;;;;;;;6.65;1.02;;;10.70;99.90;;;;;;5094438;28;20040;-75
2022/09/18 08:54:50;;;;;;;5.10;1.00;;;10.70;99.90;;;;;;5076742;28;20055;-75
2022/09/18 08:57:27;;;;;;;3.80;0.70;;;10.70;99.90;;;;;;5091345;28;20111;-76
2022/09/18 09:00:22;;;;;;;8.00;1.33;;;10.70;99.90;;;;;;5077696;28;20089;-75
2022/09/18 09:02:50;;;;;;;7.40;1.10;;;10.80;99.90;;;;;;5088829;28;20032;-77
2022/09/18 09:05:23;;;;;;;5.07;0.90;;;10.80;99.90;;;;;;5082799;28;20044;-77
2022/09/18 09:08:28;;;;;;;4.72;1.42;;;10.80;99.90;;;;;;5090854;28;20036;-76
2022/09/18 09:11:18;;;;;;;4.82;1.05;;;10.80;99.90;;;;;;5096882;28;20103;-76
2022/09/18 09:14:19;;;;;;;7.05;1.25;;;10.80;99.90;;;;;;5083414;28;20074;-76
2022/09/18 09:16:51;;;;;;;3.40;1.10;;;10.70;99.90;;;;;;5094652;28;20046;-76
2022/09/18 09:19:38;;;;;;;6.80;1.02;;;10.70;99.90;;;;;;5090373;28;20048;-75
2022/09/18 09:22:16;;;;;;;6.05;1.35;;;10.60;99.90;;;;;;5092430;28;20401;-75
2022/09/18 09:25:03;;;;;;;3.35;1.00;;;10.60;99.90;;;;;;5094216;28;20040;-74
2022/09/18 09:27:37;;;;;;;4.18;1.02;;;10.60;99.90;;;;;;5093183;28;20047;-75
2022/09/18 09:30:11;;;;;;;6.03;1.10;;;10.50;99.90;;;;;;5079411;28;20043;-75
2022/09/18 09:32:45;;;;;;;8.38;1.45;;;10.60;99.90;;;;;;5077649;28;20043;-75
2022/09/18 09:35:30;;;;;;;8.02;1.30;;;10.60;99.90;;;;;;5074781;28;20401;-75
2022/09/18 09:38:00;;;;;;;5.13;0.90;;;10.50;99.90;;;;;;5103807;28;20520;-75
2022/09/18 09:40:46;;;;;;;7.53;1.00;;;10.50;99.90;;;;;;5095535;28;20052;-74
2022/09/18 09:43:29;;;;;;;6.43;1.17;;;10.50;99.90;;;;;;5098892;28;20051;-75
2022/09/18 09:46:02;;;;;;;5.90;1.30;;;10.50;99.90;;;;;;5089090;28;20032;-76
2022/09/18 09:48:42;;;;;;;4.93;1.52;;;10.60;99.90;;;;;;5082520;28;20036;-76
2022/09/18 09:51:21;;;;;;;4.90;1.02;;;10.70;99.90;;;;;;5100415;28;20400;-75
2022/09/18 09:53:47;;;;;;;7.10;0.95;;;10.70;99.90;;;;;;5097327;28;20085;-75
2022/09/18 09:56:27;;;;;;;4.57;1.02;;;10.80;99.90;;;;;;5099627;28;20127;-75
2022/09/18 09:59:32;;;;;;;3.28;0.90;;;10.80;99.90;;;;;;5107963;27;20047;-75
2022/09/18 10:02:01;;;;;;;5.20;1.08;;;10.80;99.90;;;;;;5087697;28;20040;-75
2022/09/18 10:04:36;;;;;;;6.38;1.25;;;10.90;99.90;;;;;;5071193;28;20044;-74
2022/09/18 10:07:23;;;;;;;7.88;1.42;;;10.90;99.90;;;;;;5076298;28;20031;-75
2022/09/18 10:10:46;;;;;;;5.60;1.27;;;11.00;99.90;;;;;;5101490;28;20104;-76
2022/09/18 10:13:24;;;;;;;8.45;1.20;;;11.00;99.90;;;;;;5018105;28;20068;-76
2022/09/18 10:15:54;;;;;;;6.10;1.00;;;11.10;99.90;;;;;;5051770;28;20040;-75
2022/09/18 10:18:31;;;;;;;10.63;1.63;;;11.10;99.90;;;;;;5055210;28;20102;-76
2022/09/18 10:21:04;;;;;;;6.78;1.30;;;11.20;99.90;;;;;;5089167;28;20080;-76
2022/09/18 10:23:53;;;;;;;7.33;1.20;;;11.10;99.90;;;;;;5091083;28;20120;-75
2022/09/18 10:26:25;;;;;;;10.55;1.60;;;11.20;99.90;;;;;;5080196;28;20563;-74
2022/09/18 10:28:50;;;;;;;7.13;1.52;;;11.30;99.90;;;;;;5109485;28;20035;-75
2022/09/18 10:31:16;;;;;;;11.00;1.90;;;11.30;99.90;;;;;;5073377;28;20065;-75
2022/09/18 10:33:51;;;;;;;7.82;1.42;;;11.30;99.90;;;;;;5104594;28;20412;-75
2022/09/18 10:36:36;;;;;;;9.15;1.67;;;11.40;99.90;;;;;;5091674;28;20089;-75
2022/09/18 10:39:36;;;;;;;11.38;1.50;;;11.50;99.90;;;;;;5089599;28;20048;-75
2022/09/18 10:42:04;;;;;;;8.38;1.92;;;11.50;99.90;;;;;;5086621;28;20051;-76
2022/09/18 10:44:34;;;;;;;8.02;1.25;;;11.60;99.90;;;;;;5086036;28;20081;-75
2022/09/18 10:47:08;;;;;;;6.63;1.20;;;11.60;99.90;;;;;;5087364;28;20040;-75
2022/09/18 10:49:42;;;;;;;12.23;2.25;;;11.70;99.90;;;;;;5069291;28;20123;-75
2022/09/18 10:52:23;;;;;;;15.02;1.98;;;11.80;99.90;;;;;;5092110;28;20051;-75
2022/09/18 10:55:08;;;;;;;12.20;1.75;;;11.90;99.90;;;;;;5106116;28;20534;-75
2022/09/18 10:57:36;;;;;;;;;;;12.00;99.90;;;;;;5080313;28;20043;-75
2022/09/18 11:00:10;;;;;;;7.68;1.50;;;12.10;99.90;;;;;;5103290;28;19969;-75
2022/09/18 11:02:39;;;;;;;8.73;1.30;;;12.20;99.90;;;;;;5107864;28;20040;-76
2022/09/18 11:05:16;;;;;;;8.88;2.10;;;12.20;99.90;;;;;;5099474;28;20043;-75
2022/09/18 11:07:51;;;;;;;11.85;1.85;;;12.30;99.90;;;;;;5103135;28;20067;-75
2022/09/18 11:10:19;;;;;;;12.52;1.45;;;12.40;99.90;;;;;;5110779;28;20044;-75
2022/09/18 11:12:51;;;;;;;10.30;1.58;;;12.40;99.90;;;;;;5105075;28;20416;-75
2022/09/18 11:15:18;;;;;;;10.40;1.42;;;12.50;99.90;;;;;;5107242;28;20573;-75
2022/09/18 11:17:53;;;;;;;11.10;2.20;;;12.60;99.90;;;;;;5101039;28;20073;-75
2022/09/18 11:20:31;;;;;;;10.70;1.80;;;12.70;99.90;;;;;;5113385;28;20513;-76
2022/09/18 11:23:26;;;;;;;8.45;1.55;;;12.80;99.90;;;;;;5109742;28;20031;-75
2022/09/18 11:26:19;;;;;;;9.80;1.50;;;12.90;99.90;;;;;;5094879;28;20130;-75
2022/09/18 11:29:01;;;;;;;7.88;1.40;;;13.00;99.90;;;;;;5096774;28;20047;-76
2022/09/18 11:31:44;;;;;;;5.88;1.27;;;13.00;99.90;;;;;;5086908;28;20035;-76
2022/09/18 11:34:22;;;;;;;11.55;1.70;;;13.10;99.90;;;;;;5112982;28;20039;-75
2022/09/18 11:36:51;;;;;;;7.10;1.38;;;13.20;99.90;;;;;;5112972;28;20066;-76
2022/09/18 11:39:32;;;;;;;9.25;1.70;;;13.20;99.90;;;;;;5082925;28;20046;-76
2022/09/18 11:41:58;;;;;;;9.70;1.90;;;13.40;99.90;;;;;;5080301;28;20091;-75
2022/09/18 11:44:31;;;;;;;9.38;1.30;;;13.50;99.90;;;;;;5090660;28;20040;-75
2022/09/18 11:47:12;;;;;;;7.70;1.65;;;13.50;99.90;;;;;;5089878;28;20028;-76
2022/09/18 11:49:52;;;;;;;9.38;1.65;;;13.60;99.90;;;;;;5092191;28;20134;-76
2022/09/18 11:52:28;;;;;;;10.52;1.35;;;13.60;99.90;;;;;;5074141;28;20056;-76
2022/09/18 11:55:03;;;;;;;7.53;1.30;;;13.60;99.90;;;;;;5091413;28;20127;-75
2022/09/18 11:57:36;;;;;;;5.20;1.20;;;13.60;99.90;;;;;;5092590;28;20036;-75
2022/09/18 12:00:10;;;;;;;7.60;1.02;;;13.50;99.90;;;;;;5097704;28;20038;-76
2022/09/18 12:02:52;;;;;;;5.80;1.00;;;13.50;99.90;;;;;;5099353;28;20032;-75
2022/09/18 12:05:33;;;;;;;9.80;1.30;;;13.60;99.90;;;;;;5091899;28;20375;-76
2022/09/18 12:08:37;;;;;;;9.30;1.30;;;13.60;99.90;;;;;;5111545;28;20070;-76
2022/09/18 12:11:20;;;;;;;6.65;1.17;;;13.60;99.90;;;;;;5112494;28;20108;-76
2022/09/18 12:14:23;;;;;;;9.07;1.67;;;13.70;99.90;;;;;;5107387;27;20405;-75
2022/09/18 12:16:55;;;;;;;6.78;0.93;;;13.70;99.90;;;;;;5103548;28;20040;-76
2022/09/18 12:19:39;;;;;;;7.40;1.10;;;13.70;99.90;;;;;;5095089;28;20039;-75
2022/09/18 12:22:14;;;;;;;7.80;1.58;;;13.80;99.90;;;;;;5105185;28;20485;-76
2022/09/18 12:24:40;;;;;;;5.70;1.10;;;13.70;99.90;;;;;;5077975;28;20043;-75
2022/09/18 12:27:27;;;;;;;5.53;1.35;;;13.80;99.90;;;;;;5101069;28;20043;-75
2022/09/18 12:30:16;;;;;;;8.85;1.20;;;13.70;99.90;;;;;;5092546;28;20113;-76
2022/09/18 12:33:09;;;;;;;11.38;1.83;;;13.60;99.90;;;;;;5107530;28;20188;-76
2022/09/18 12:35:51;;;;;;;5.82;1.15;;;13.50;99.90;;;;;;5091244;28;20040;-76
2022/09/18 12:38:38;;;;;;;6.22;1.20;;;13.40;99.90;;;;;;5109578;28;20031;-76
2022/09/18 12:41:34;;;;;;;5.88;1.02;;;13.30;99.90;;;;;;5090829;28;20058;-76
2022/09/18 12:44:45;;;;;;;3.67;0.75;;;13.30;99.90;;;;;;5091371;28;20448;-75
2022/09/18 12:47:26;;;;;;;6.18;0.88;;;13.30;99.90;;;;;;5081957;28;20497;-76
2022/09/18 12:50:19;;;;;;;6.30;1.73;;;13.50;99.90;;;;;;5109796;28;20047;-75
2022/09/18 12:53:16;;;;;;;6.80;1.17;;;13.50;99.90;;;;;;5076478;28;20075;-75
2022/09/18 12:55:54;;;;;;;5.40;1.08;;;13.50;99.90;;;;;;5095818;28;20128;-75
2022/09/18 12:58:34;;;;;;;9.77;1.13;;;13.60;99.90;;;;;;5092382;28;20062;-75
2022/09/18 13:01:04;;;;;;;7.10;1.10;;;13.60;99.90;;;;;;5104880;27;20038;-76
2022/09/18 13:03:33;;;;;;;6.35;1.20;;;13.60;99.90;;;;;;5113401;27;20039;-75
2022/09/18 13:06:06;;;;;;;8.05;1.13;;;13.70;99.90;;;;;;5098933;27;20107;-75
2022/09/18 13:08:41;;;;;;;7.00;1.00;;;13.70;99.90;;;;;;5108926;27;20048;-76
2022/09/18 13:11:18;;;;;;;5.63;1.70;;;13.80;99.90;;;;;;5111875;27;20039;-75
2022/09/18 13:13:48;;;;;;;6.40;1.05;;;13.80;99.90;;;;;;5095961;27;20032;-75